SEVKG ESUT-ENBO

Flight info

Callsign SEVKG
Flight time N/A
Altitude FL060
Route
Aircraft DHC6/L-S/C

Departure

Time 2026-04-22 12:39
Airport Hemavan Airport (ESUT)

Arrival

Time N/A
Airport Bodø Airport (ENBO)
Time Latitude Longitude Altitude Speed Heading
2026-04-22 12:29 65.81187 15.07893 1508 ft 0 kts 324°
2026-04-22 12:31 65.81179 15.07908 1508 ft 2 kts 324°
2026-04-22 12:31 65.81173 15.07917 1508 ft 0 kts 324°
2026-04-22 12:32 65.81174 15.07917 1508 ft 0 kts 324°
2026-04-22 12:33 65.81176 15.07908 1508 ft 3 kts 290°
2026-04-22 12:33 65.81163 15.07833 1508 ft 8 kts 245°
2026-04-22 12:34 65.81143 15.07743 1508 ft 10 kts 240°
2026-04-22 12:34 65.81103 15.07679 1508 ft 8 kts 158°
2026-04-22 12:34 65.81051 15.07782 1508 ft 7 kts 176°
2026-04-22 12:34 65.80988 15.07808 1508 ft 13 kts 152°
2026-04-22 12:35 65.80892 15.07927 1508 ft 17 kts 154°
2026-04-22 12:35 65.80780 15.08065 1508 ft 18 kts 152°
2026-04-22 12:35 65.80664 15.08213 1508 ft 19 kts 149°
2026-04-22 12:35 65.80544 15.08366 1508 ft 20 kts 156°
2026-04-22 12:36 65.80423 15.08512 1508 ft 18 kts 143°
2026-04-22 12:36 65.80340 15.08619 1508 ft 14 kts 148°
2026-04-22 12:36 65.80264 15.08721 1508 ft 15 kts 153°
2026-04-22 12:36 65.80151 15.08856 1508 ft 18 kts 149°
2026-04-22 12:37 65.80069 15.08929 1508 ft 2 kts 66°
2026-04-22 12:37 65.80085 15.08931 1508 ft 0 kts 336°
2026-04-22 12:37 65.80085 15.08930 1508 ft 0 kts 336°
2026-04-22 12:38 65.80087 15.08928 1508 ft 3 kts 333°
2026-04-22 12:38 65.80333 15.08622 1508 ft 85 kts 331°
2026-04-22 12:38 65.80991 15.07799 1559 ft 115 kts 332°
2026-04-22 12:38 65.81720 15.07030 1834 ft 103 kts 339°
2026-04-22 12:39 65.82403 15.06567 2075 ft 118 kts 339°
2026-04-22 12:39 65.83546 15.04417 2603 ft 105 kts 288°
2026-04-22 12:39 65.83464 15.02719 2911 ft 107 kts 238°
2026-04-22 12:40 65.82782 15.01998 3243 ft 117 kts 182°
2026-04-22 12:40 65.82060 15.02806 3584 ft 112 kts 154°
2026-04-22 12:40 65.81361 15.03209 3846 ft 99 kts 205°
2026-04-22 12:40 65.80986 15.02140 4142 ft 79 kts 272°
2026-04-22 12:41 65.81307 15.01126 4424 ft 84 kts 326°
2026-04-22 12:41 65.81868 15.00493 4594 ft 97 kts 327°
2026-04-22 12:41 65.82522 14.99706 4603 ft 114 kts 327°
2026-04-22 12:41 65.83264 14.98773 4569 ft 125 kts 328°
2026-04-22 12:42 65.84052 14.97755 4510 ft 129 kts 327°
2026-04-22 12:42 65.84847 14.96727 4471 ft 129 kts 327°
2026-04-22 12:42 65.85633 14.95718 4460 ft 128 kts 327°
2026-04-22 12:42 65.86415 14.94704 4463 ft 127 kts 327°
2026-04-22 12:43 65.87141 14.93547 4445 ft 125 kts 309°
2026-04-22 12:43 65.87324 14.91597 4472 ft 123 kts 263°
2026-04-22 12:43 65.86759 14.89962 4498 ft 138 kts 216°
2026-04-22 12:43 65.85769 14.89832 4500 ft 153 kts 169°
2026-04-22 12:44 65.84862 14.91257 4554 ft 157 kts 146°
2026-04-22 12:44 65.84022 14.93004 4510 ft 162 kts 143°
2026-04-22 12:44 65.83178 14.94802 4477 ft 161 kts 143°
2026-04-22 12:44 65.82333 14.96603 4462 ft 161 kts 143°
2026-04-22 12:45 65.81495 14.98396 4468 ft 160 kts 144°
2026-04-22 12:45 65.80662 15.00163 4471 ft 159 kts 144°
2026-04-22 12:45 65.79826 15.01937 4469 ft 159 kts 144°
2026-04-22 12:45 65.78992 15.03700 4473 ft 158 kts 144°
2026-04-22 12:46 65.78156 15.05460 4463 ft 160 kts 144°
2026-04-22 12:46 65.77316 15.07228 4472 ft 158 kts 143°
2026-04-22 12:46 65.76479 15.08980 4462 ft 159 kts 143°
2026-04-22 12:46 65.75644 15.10727 4474 ft 158 kts 144°
2026-04-22 12:47 65.74803 15.12469 4462 ft 159 kts 144°
2026-04-22 12:47 65.73955 15.14221 4434 ft 165 kts 148°
2026-04-22 12:47 65.73075 15.16022 4475 ft 167 kts 151°
2026-04-22 12:47 65.72171 15.17834 4465 ft 172 kts 148°
2026-04-22 12:48 65.71299 15.19550 4492 ft 170 kts 150°
2026-04-22 12:48 65.70310 15.20984 4462 ft 162 kts 176°
2026-04-22 12:48 65.69310 15.20678 4481 ft 135 kts 226°
2026-04-22 12:48 65.68850 15.19078 4492 ft 110 kts 274°
2026-04-22 12:49 65.68954 15.17267 4545 ft 111 kts 289°
2026-04-22 12:49 65.69157 15.15415 4515 ft 116 kts 286°
2026-04-22 12:49 65.69375 15.13511 4472 ft 118 kts 286°
2026-04-22 12:49 65.69592 15.11604 4454 ft 119 kts 287°
2026-04-22 12:50 65.69813 15.09676 4477 ft 117 kts 285°
2026-04-22 12:50 65.70028 15.07781 4454 ft 118 kts 289°